createdAt,value
2023-10-01T00:00:03.659Z,97.742
2023-10-01T00:05:03.484Z,97.534
2023-10-01T00:10:03.424Z,97.583
2023-10-01T00:15:03.255Z,97.479
2023-10-01T00:20:04.059Z,97.687
2023-10-01T00:25:04.046Z,98.95
2023-10-01T00:30:04.160Z,99.304
2023-10-01T00:35:04.006Z,99.506
2023-10-01T00:40:03.768Z,99.915
2023-10-01T00:45:03.547Z,99.994
2023-10-01T00:50:03.350Z,99.994
2023-10-01T00:55:04.256Z,99.994
2023-10-01T01:00:03.557Z,99.994
2023-10-01T01:05:03.376Z,99.994
2023-10-01T01:10:04.443Z,99.994
2023-10-01T01:15:03.212Z,99.994
2023-10-01T01:20:03.244Z,99.994
2023-10-01T01:25:04.371Z,99.994
2023-10-01T01:30:03.624Z,99.994
2023-10-01T01:35:03.435Z,99.805
2023-10-01T01:40:04.240Z,99.542
2023-10-01T01:45:04.105Z,99.237
2023-10-01T01:50:03.888Z,98.932
2023-10-01T01:55:03.751Z,98.932
2023-10-01T02:00:03.637Z,98.932
2023-10-01T02:05:03.596Z,98.877
2023-10-01T02:10:03.578Z,98.981
2023-10-01T02:15:03.418Z,98.981
2023-10-01T02:20:03.361Z,99.182
2023-10-01T02:25:04.150Z,99.39
2023-10-01T02:30:03.874Z,99.39
2023-10-01T02:35:03.614Z,99.945
2023-10-01T02:40:03.320Z,99.994
2023-10-01T02:45:04.139Z,99.994
2023-10-01T02:50:03.869Z,99.994
2023-10-01T02:55:03.757Z,99.994
2023-10-01T03:00:03.737Z,99.994
2023-10-01T03:05:03.582Z,99.994
2023-10-01T03:10:03.338Z,99.994
2023-10-01T03:15:03.255Z,99.994
2023-10-01T03:20:04.278Z,99.994
2023-10-01T03:25:03.273Z,99.792
2023-10-01T03:30:04.129Z,99.591
2023-10-01T03:35:03.854Z,99.591
2023-10-01T03:40:03.705Z,99.487
2023-10-01T03:45:03.408Z,99.487
2023-10-01T03:50:03.203Z,99.182
2023-10-01T03:55:03.941Z,99.182
2023-10-01T04:00:03.699Z,98.773
2023-10-01T04:05:03.591Z,98.364
2023-10-01T04:10:03.456Z,97.607
2023-10-01T04:15:03.822Z,96.686
2023-10-01T04:20:03.871Z,95.874
2023-10-01T04:25:03.852Z,95.569
2023-10-01T04:30:03.670Z,94.855
2023-10-01T04:35:03.409Z,94.092
2023-10-01T04:40:03.775Z,93.481
2023-10-01T04:45:03.719Z,93.176
2023-10-01T04:50:03.669Z,93.384
2023-10-01T04:55:24.134Z,92.566
2023-10-01T05:00:04.069Z,92.157
2023-10-01T05:05:03.839Z,91.852
2023-10-01T05:10:03.381Z,91.608
2023-10-01T05:15:03.532Z,91.4
2023-10-01T05:20:03.527Z,91.4
2023-10-01T05:25:03.834Z,91.302
2023-10-01T05:30:03.552Z,91.302
2023-10-01T05:35:03.377Z,91.199
2023-10-01T05:40:14.507Z,90.747
2023-10-01T05:45:03.494Z,90.24
2023-10-01T05:50:03.673Z,89.893
2023-10-01T05:55:04.216Z,89.545
2023-10-01T06:00:03.586Z,88.281
2023-10-01T06:05:03.405Z,87.531
2023-10-01T06:10:03.425Z,86.371
2023-10-01T06:15:03.297Z,85.919
2023-10-01T06:20:03.312Z,85.168
2023-10-01T06:25:03.669Z,83.405
2023-10-01T06:30:03.496Z,82.898
2023-10-01T06:35:03.318Z,82.05
2023-10-01T06:40:04.261Z,81.464
2023-10-01T06:45:03.199Z,79.907
2023-10-01T06:50:04.179Z,78.455
2023-10-01T06:55:04.234Z,77.606
2023-10-01T07:00:03.407Z,76.898
2023-10-01T07:05:20.346Z,76.05
2023-10-01T07:10:03.772Z,75.714
2023-10-01T07:15:03.546Z,75.916
2023-10-01T07:20:03.853Z,75.171
2023-10-01T07:25:03.497Z,74.194
2023-10-01T07:30:03.874Z,72.272
2023-10-01T07:35:04.058Z,69.049
2023-10-01T07:40:04.237Z,66.473
2023-10-01T07:45:03.288Z,65.796
2023-10-01T07:50:03.151Z,65.063
2023-10-01T07:55:03.526Z,65.9
2023-10-01T08:00:03.619Z,65.295
2023-10-01T08:05:03.765Z,66.229
2023-10-01T08:10:03.838Z,63.617
2023-10-01T08:15:03.519Z,64.117
2023-10-01T08:20:03.484Z,65.125
2023-10-01T08:25:04.267Z,64.056
2023-10-01T08:30:04.070Z,63.263
2023-10-01T08:35:04.010Z,60.864
2023-10-01T08:40:04.004Z,59.961
2023-10-01T08:45:03.812Z,60.138
2023-10-01T08:50:03.780Z,58.13
2023-10-01T08:55:03.643Z,56.726
2023-10-01T09:00:03.580Z,56.024
2023-10-01T09:05:03.532Z,56.152
2023-10-01T09:10:03.933Z,56.482
2023-10-01T09:15:03.281Z,57.281
2023-10-01T09:20:03.754Z,56.812
2023-10-01T09:25:04.161Z,55.878
2023-10-01T09:30:04.169Z,55.353
2023-10-01T09:35:03.210Z,55.096
2023-10-01T09:40:04.119Z,53.546
2023-10-01T09:45:04.044Z,52.692
2023-10-01T09:50:04.157Z,51.569
2023-10-01T09:55:04.066Z,53.467
2023-10-01T10:00:03.767Z,54.767
2023-10-01T10:05:04.010Z,53.467
2023-10-01T10:10:03.880Z,51.447
2023-10-01T10:15:03.917Z,52.521
2023-10-01T10:20:04.047Z,52.667
2023-10-01T10:25:04.171Z,51.074
2023-10-01T10:30:03.878Z,52.893
2023-10-01T10:35:03.462Z,51.819
2023-10-01T10:40:03.615Z,50.146
2023-10-01T10:45:03.732Z,50.867
2023-10-01T10:50:04.092Z,51.416
2023-10-01T10:55:03.451Z,51.996
2023-10-01T11:00:03.959Z,52.417
2023-10-01T11:05:03.682Z,51.691
2023-10-01T11:10:03.440Z,50.97
2023-10-01T11:15:03.617Z,49.719
2023-10-01T11:20:04.188Z,49.646
2023-10-01T11:25:05.447Z,50.647
2023-10-01T11:30:03.593Z,52.441
2023-10-01T11:35:03.561Z,53.241
2023-10-01T11:40:03.360Z,52.844
2023-10-01T11:45:03.254Z,53.168
2023-10-01T11:50:03.617Z,54.34
2023-10-01T11:55:03.465Z,53.741
2023-10-01T12:00:03.790Z,54.816
2023-10-01T12:05:03.499Z,55.341
2023-10-01T12:10:03.794Z,54.541
2023-10-01T12:15:03.597Z,56.439
2023-10-01T12:20:03.584Z,56.769
2023-10-01T12:25:03.384Z,57.263
2023-10-01T12:30:03.357Z,57.068
2023-10-01T12:35:04.208Z,56.769
2023-10-01T12:40:03.935Z,56.268
2023-10-01T12:45:03.668Z,56.995
2023-10-01T12:50:03.533Z,57.391
2023-10-01T12:55:03.323Z,57.69
2023-10-01T13:00:04.005Z,57.092
2023-10-01T13:05:03.825Z,58.093
2023-10-01T13:10:03.605Z,57.465
2023-10-01T13:15:03.392Z,56.995
2023-10-01T13:20:03.268Z,57.623
2023-10-01T13:25:04.014Z,58.746
2023-10-01T13:30:04.244Z,59.149
2023-10-01T13:35:04.125Z,59.222
2023-10-01T13:40:03.986Z,59.119
2023-10-01T13:45:03.866Z,59.021
2023-10-01T13:50:04.168Z,59.296
2023-10-01T13:55:03.560Z,59.595
2023-10-01T14:00:03.552Z,58.893
2023-10-01T14:05:03.930Z,58.563
2023-10-01T14:10:04.204Z,58.765
2023-10-01T14:15:04.023Z,57.965
2023-10-01T14:20:04.011Z,58.264
2023-10-01T14:25:03.661Z,57.892
2023-10-01T14:30:03.454Z,58.49
2023-10-01T14:35:03.392Z,58.191
2023-10-01T14:40:04.168Z,58.093
2023-10-01T14:45:03.926Z,58.691
2023-10-01T14:50:03.750Z,59.094
2023-10-01T14:55:03.608Z,59.491
2023-10-01T15:00:03.440Z,59.094
2023-10-01T15:05:03.544Z,59.192
2023-10-01T15:10:03.575Z,58.722
2023-10-01T15:15:53.128Z,58.99
2023-10-01T15:20:03.981Z,59.393
2023-10-01T15:25:03.695Z,59.424
2023-10-01T15:30:03.196Z,58.923
2023-10-01T15:35:03.652Z,58.618
2023-10-01T15:40:04.179Z,58.923
2023-10-01T15:45:03.307Z,58.948
2023-10-01T15:50:03.692Z,59.448
2023-10-01T15:55:03.943Z,59.747
2023-10-01T16:00:03.715Z,59.479
2023-10-01T16:05:04.048Z,60.779
2023-10-01T16:10:03.234Z,61.981
2023-10-01T16:15:03.542Z,62.213
2023-10-01T16:20:03.420Z,62.811
2023-10-01T16:25:03.167Z,64.246
2023-10-01T16:30:03.317Z,63.47
2023-10-01T16:35:03.345Z,63.806
2023-10-01T16:40:04.034Z,63.306
2023-10-01T16:45:03.133Z,63.434
2023-10-01T16:50:04.122Z,66.174
2023-10-01T16:55:03.846Z,66.376
2023-10-01T17:00:03.497Z,65.906
2023-10-01T17:05:03.426Z,66.437
2023-10-01T17:10:03.207Z,68.347
2023-10-01T17:15:03.901Z,68.182
2023-10-01T17:20:03.951Z,68.481
2023-10-01T17:25:03.752Z,69.623
2023-10-01T17:30:03.336Z,69.757
2023-10-01T17:35:04.219Z,69.153
2023-10-01T17:40:04.055Z,69.153
2023-10-01T17:45:03.821Z,69.049
2023-10-01T17:50:03.862Z,71.063
2023-10-01T17:55:04.966Z,71.301
2023-10-01T18:00:03.727Z,72.339
2023-10-01T18:05:03.786Z,73.077
2023-10-01T18:10:03.477Z,73.987
2023-10-01T18:15:03.247Z,75.232
2023-10-01T18:20:03.503Z,76.038
2023-10-01T18:25:03.496Z,76.477
2023-10-01T18:30:03.287Z,77.185
2023-10-01T18:35:04.190Z,78.229
2023-10-01T18:40:03.918Z,79.883
2023-10-01T18:45:03.584Z,79.987
2023-10-01T18:50:03.358Z,82.245
2023-10-01T18:55:03.395Z,82.141
2023-10-01T19:00:04.083Z,82.788
2023-10-01T19:05:03.919Z,82.99
2023-10-01T19:10:03.913Z,84.204
2023-10-01T19:15:03.773Z,84.344
2023-10-01T19:20:03.835Z,85.394
2023-10-01T19:25:03.800Z,84.186
2023-10-01T19:30:03.607Z,84.222
2023-10-01T19:35:03.528Z,85.034
2023-10-01T19:40:03.356Z,84.93
2023-10-01T19:45:03.183Z,85.236
2023-10-01T19:50:04.056Z,85.437
2023-10-01T19:55:03.920Z,86.389
2023-10-01T20:00:03.792Z,86.591
2023-10-01T20:05:03.734Z,86.493
2023-10-01T20:10:03.675Z,86.896
2023-10-01T20:15:03.375Z,86.792
2023-10-01T20:20:03.742Z,86.792
2023-10-01T20:25:03.704Z,86.896
2023-10-01T20:30:03.459Z,86.389
2023-10-01T20:35:03.387Z,86.694
2023-10-01T20:40:04.248Z,86.694
2023-10-01T20:45:03.889Z,86.792
2023-10-01T20:50:05.711Z,87.299
2023-10-01T20:55:03.762Z,88.049
2023-10-01T21:00:03.398Z,88.818
2023-10-01T21:05:03.374Z,89.166
2023-10-01T21:10:03.185Z,89.771
2023-10-01T21:15:03.973Z,89.978
2023-10-01T21:20:04.126Z,90.021
2023-10-01T21:25:03.965Z,89.41
2023-10-01T21:30:03.969Z,89.716
2023-10-01T21:35:04.062Z,89.716
2023-10-01T21:40:03.821Z,89.307
2023-10-01T21:45:03.619Z,89.307
2023-10-01T21:50:03.533Z,89.307
2023-10-01T21:55:03.356Z,89.655
2023-10-01T22:00:04.505Z,89.349
2023-10-01T22:05:03.635Z,89.551
2023-10-01T22:10:03.484Z,90.668
2023-10-01T22:15:03.196Z,90.918
2023-10-01T22:20:04.277Z,90.918
2023-10-01T22:25:03.309Z,91.217
2023-10-01T22:30:04.040Z,91.26
2023-10-01T22:35:03.908Z,91.467
2023-10-01T22:40:03.801Z,91.406
2023-10-01T22:45:03.554Z,92.12
2023-10-01T22:50:03.816Z,93.628
2023-10-01T22:55:03.631Z,93.018
2023-10-01T23:00:03.344Z,93.469
2023-10-01T23:05:03.460Z,93.567
2023-10-01T23:10:03.470Z,93.671
2023-10-01T23:15:04.133Z,93.976
2023-10-01T23:20:03.637Z,93.976
2023-10-01T23:25:03.767Z,93.671
2023-10-01T23:30:03.500Z,93.774
2023-10-01T23:35:03.694Z,93.469
2023-10-01T23:40:03.492Z,93.262
2023-10-01T23:45:04.099Z,93.06
2023-10-01T23:50:03.956Z,93.164
2023-10-01T23:55:03.767Z,93.164
